sensor_id;sensor_type;location;lat;lon;timestamp;temperature;humidity
78028;DHT22;67235;45.638;11.714;2023-04-01T00:00:20;9.00;76.10
78028;DHT22;67235;45.638;11.714;2023-04-01T00:02:46;9.00;76.20
78028;DHT22;67235;45.638;11.714;2023-04-01T00:05:13;9.10;75.80
78028;DHT22;67235;45.638;11.714;2023-04-01T00:07:39;9.10;75.40
78028;DHT22;67235;45.638;11.714;2023-04-01T00:10:10;9.00;75.40
78028;DHT22;67235;45.638;11.714;2023-04-01T00:12:37;8.90;75.40
78028;DHT22;67235;45.638;11.714;2023-04-01T00:15:06;8.90;75.10
78028;DHT22;67235;45.638;11.714;2023-04-01T00:17:32;8.80;73.90
78028;DHT22;67235;45.638;11.714;2023-04-01T00:19:59;8.70;75.00
78028;DHT22;67235;45.638;11.714;2023-04-01T00:22:26;8.80;75.20
78028;DHT22;67235;45.638;11.714;2023-04-01T00:24:53;8.70;73.70
78028;DHT22;67235;45.638;11.714;2023-04-01T00:27:19;8.60;74.00
78028;DHT22;67235;45.638;11.714;2023-04-01T00:29:46;8.60;75.20
78028;DHT22;67235;45.638;11.714;2023-04-01T00:32:13;8.40;75.30
78028;DHT22;67235;45.638;11.714;2023-04-01T00:34:40;8.30;74.60
78028;DHT22;67235;45.638;11.714;2023-04-01T00:37:07;8.40;74.70
78028;DHT22;67235;45.638;11.714;2023-04-01T00:39:34;8.50;74.70
78028;DHT22;67235;45.638;11.714;2023-04-01T00:42:00;8.40;73.30
78028;DHT22;67235;45.638;11.714;2023-04-01T00:44:30;8.20;73.80
78028;DHT22;67235;45.638;11.714;2023-04-01T00:46:59;8.30;75.20
78028;DHT22;67235;45.638;11.714;2023-04-01T00:49:37;8.40;75.70
78028;DHT22;67235;45.638;11.714;2023-04-01T00:52:06;8.40;75.70
78028;DHT22;67235;45.638;11.714;2023-04-01T00:54:34;8.40;75.10
78028;DHT22;67235;45.638;11.714;2023-04-01T00:57:17;8.40;75.10
78028;DHT22;67235;45.638;11.714;2023-04-01T00:59:46;8.40;74.90
78028;DHT22;67235;45.638;11.714;2023-04-01T01:02:15;8.40;74.40
78028;DHT22;67235;45.638;11.714;2023-04-01T01:04:41;8.30;74.10
78028;DHT22;67235;45.638;11.714;2023-04-01T01:17:33;8.10;74.70
78028;DHT22;67235;45.638;11.714;2023-04-01T01:23:04;8.10;74.50
78028;DHT22;67235;45.638;11.714;2023-04-01T01:29:09;8.10;75.90
78028;DHT22;67235;45.638;11.714;2023-04-01T01:36:57;8.00;74.60
78028;DHT22;67235;45.638;11.714;2023-04-01T01:39:28;8.10;74.70
78028;DHT22;67235;45.638;11.714;2023-04-01T01:42:02;8.20;74.50
78028;DHT22;67235;45.638;11.714;2023-04-01T01:44:30;8.20;74.70
78028;DHT22;67235;45.638;11.714;2023-04-01T01:46:57;8.10;75.00
78028;DHT22;67235;45.638;11.714;2023-04-01T01:49:24;8.00;75.40
78028;DHT22;67235;45.638;11.714;2023-04-01T01:51:51;7.80;74.80
78028;DHT22;67235;45.638;11.714;2023-04-01T01:54:18;8.00;75.00
78028;DHT22;67235;45.638;11.714;2023-04-01T01:56:46;8.00;74.70
78028;DHT22;67235;45.638;11.714;2023-04-01T01:59:15;8.00;75.10
78028;DHT22;67235;45.638;11.714;2023-04-01T02:01:48;7.90;75.00
78028;DHT22;67235;45.638;11.714;2023-04-01T02:04:15;7.80;74.60
78028;DHT22;67235;45.638;11.714;2023-04-01T02:06:48;7.60;74.20
78028;DHT22;67235;45.638;11.714;2023-04-01T02:09:18;7.40;74.40
78028;DHT22;67235;45.638;11.714;2023-04-01T02:11:48;7.40;74.30
78028;DHT22;67235;45.638;11.714;2023-04-01T02:14:19;7.40;74.20
78028;DHT22;67235;45.638;11.714;2023-04-01T02:17:04;7.50;73.80
78028;DHT22;67235;45.638;11.714;2023-04-01T02:19:39;7.60;74.20
78028;DHT22;67235;45.638;11.714;2023-04-01T02:22:10;7.50;74.60
78028;DHT22;67235;45.638;11.714;2023-04-01T02:24:38;7.50;75.20
78028;DHT22;67235;45.638;11.714;2023-04-01T02:27:05;7.40;74.50
78028;DHT22;67235;45.638;11.714;2023-04-01T02:29:32;7.50;75.00
78028;DHT22;67235;45.638;11.714;2023-04-01T02:31:58;7.50;74.80
78028;DHT22;67235;45.638;11.714;2023-04-01T02:34:24;7.40;74.10
78028;DHT22;67235;45.638;11.714;2023-04-01T02:36:51;7.40;74.90
78028;DHT22;67235;45.638;11.714;2023-04-01T02:39:19;7.50;75.30
78028;DHT22;67235;45.638;11.714;2023-04-01T02:41:45;7.40;74.50
78028;DHT22;67235;45.638;11.714;2023-04-01T02:44:13;7.50;75.00
78028;DHT22;67235;45.638;11.714;2023-04-01T02:46:40;7.40;75.00
78028;DHT22;67235;45.638;11.714;2023-04-01T02:49:06;7.30;74.80
78028;DHT22;67235;45.638;11.714;2023-04-01T02:51:32;7.20;75.10
78028;DHT22;67235;45.638;11.714;2023-04-01T02:53:58;7.50;76.00
78028;DHT22;67235;45.638;11.714;2023-04-01T02:56:24;7.50;75.40
78028;DHT22;67235;45.638;11.714;2023-04-01T02:58:51;7.40;74.00
78028;DHT22;67235;45.638;11.714;2023-04-01T03:01:17;7.40;74.10
78028;DHT22;67235;45.638;11.714;2023-04-01T03:03:43;7.40;74.30
78028;DHT22;67235;45.638;11.714;2023-04-01T03:06:12;7.30;74.40
78028;DHT22;67235;45.638;11.714;2023-04-01T03:08:38;7.20;74.50
78028;DHT22;67235;45.638;11.714;2023-04-01T03:11:05;6.80;73.70
78028;DHT22;67235;45.638;11.714;2023-04-01T03:13:31;6.80;74.70
78028;DHT22;67235;45.638;11.714;2023-04-01T03:15:57;6.80;74.50
78028;DHT22;67235;45.638;11.714;2023-04-01T03:18:23;6.80;75.30
78028;DHT22;67235;45.638;11.714;2023-04-01T03:20:49;6.80;75.80
78028;DHT22;67235;45.638;11.714;2023-04-01T03:23:15;6.90;75.20
78028;DHT22;67235;45.638;11.714;2023-04-01T03:25:42;6.70;74.70
78028;DHT22;67235;45.638;11.714;2023-04-01T03:28:08;6.80;74.80
78028;DHT22;67235;45.638;11.714;2023-04-01T03:30:35;6.90;74.20
78028;DHT22;67235;45.638;11.714;2023-04-01T03:33:01;6.80;73.70
78028;DHT22;67235;45.638;11.714;2023-04-01T03:35:28;6.70;74.80
78028;DHT22;67235;45.638;11.714;2023-04-01T03:37:54;6.80;74.40
78028;DHT22;67235;45.638;11.714;2023-04-01T03:40:21;6.70;74.60
78028;DHT22;67235;45.638;11.714;2023-04-01T03:42:46;6.70;74.50
78028;DHT22;67235;45.638;11.714;2023-04-01T03:45:12;6.70;74.40
78028;DHT22;67235;45.638;11.714;2023-04-01T03:47:39;6.70;74.00
78028;DHT22;67235;45.638;11.714;2023-04-01T03:50:06;6.70;74.10
78028;DHT22;67235;45.638;11.714;2023-04-01T03:52:33;6.80;74.90
78028;DHT22;67235;45.638;11.714;2023-04-01T03:55:00;6.60;75.30
78028;DHT22;67235;45.638;11.714;2023-04-01T03:57:26;6.90;75.70
78028;DHT22;67235;45.638;11.714;2023-04-01T03:59:52;6.50;75.40
78028;DHT22;67235;45.638;11.714;2023-04-01T04:02:18;6.40;75.50
78028;DHT22;67235;45.638;11.714;2023-04-01T04:04:43;6.40;75.80
78028;DHT22;67235;45.638;11.714;2023-04-01T04:07:10;6.50;76.20
78028;DHT22;67235;45.638;11.714;2023-04-01T04:09:36;6.30;76.00
78028;DHT22;67235;45.638;11.714;2023-04-01T04:12:02;6.30;76.00
78028;DHT22;67235;45.638;11.714;2023-04-01T04:14:28;6.50;75.80
78028;DHT22;67235;45.638;11.714;2023-04-01T04:16:53;6.30;74.20
78028;DHT22;67235;45.638;11.714;2023-04-01T04:19:19;6.20;74.60
78028;DHT22;67235;45.638;11.714;2023-04-01T04:21:45;6.10;74.60
78028;DHT22;67235;45.638;11.714;2023-04-01T04:24:11;6.10;74.50
78028;DHT22;67235;45.638;11.714;2023-04-01T04:26:37;6.20;74.30
78028;DHT22;67235;45.638;11.714;2023-04-01T04:29:03;6.20;74.80
78028;DHT22;67235;45.638;11.714;2023-04-01T04:31:29;6.30;75.30
78028;DHT22;67235;45.638;11.714;2023-04-01T04:33:55;6.20;74.70
78028;DHT22;67235;45.638;11.714;2023-04-01T04:36:21;6.20;73.40
78028;DHT22;67235;45.638;11.714;2023-04-01T04:38:47;6.20;73.00
78028;DHT22;67235;45.638;11.714;2023-04-01T04:41:15;6.20;72.20
78028;DHT22;67235;45.638;11.714;2023-04-01T04:43:52;5.90;74.60
78028;DHT22;67235;45.638;11.714;2023-04-01T04:46:19;6.00;74.60
78028;DHT22;67235;45.638;11.714;2023-04-01T04:48:45;6.20;74.00
78028;DHT22;67235;45.638;11.714;2023-04-01T04:51:15;6.20;74.00
78028;DHT22;67235;45.638;11.714;2023-04-01T04:53:41;6.10;74.00
78028;DHT22;67235;45.638;11.714;2023-04-01T04:56:07;6.20;74.50
78028;DHT22;67235;45.638;11.714;2023-04-01T04:58:33;6.30;74.60
78028;DHT22;67235;45.638;11.714;2023-04-01T05:01:05;6.40;74.30
78028;DHT22;67235;45.638;11.714;2023-04-01T05:03:30;6.30;74.30
78028;DHT22;67235;45.638;11.714;2023-04-01T05:05:56;6.20;73.20
78028;DHT22;67235;45.638;11.714;2023-04-01T05:08:22;6.40;73.30
78028;DHT22;67235;45.638;11.714;2023-04-01T05:10:48;6.70;74.20
78028;DHT22;67235;45.638;11.714;2023-04-01T05:13:14;6.50;73.90
78028;DHT22;67235;45.638;11.714;2023-04-01T05:15:40;6.70;73.50
78028;DHT22;67235;45.638;11.714;2023-04-01T05:18:06;6.80;72.80
78028;DHT22;67235;45.638;11.714;2023-04-01T05:20:31;6.70;73.60
78028;DHT22;67235;45.638;11.714;2023-04-01T05:22:58;6.40;73.50
78028;DHT22;67235;45.638;11.714;2023-04-01T05:25:24;6.90;73.50
78028;DHT22;67235;45.638;11.714;2023-04-01T05:27:51;8.10;72.10
78028;DHT22;67235;45.638;11.714;2023-04-01T05:30:20;8.80;70.50
78028;DHT22;67235;45.638;11.714;2023-04-01T05:32:46;9.60;69.80
78028;DHT22;67235;45.638;11.714;2023-04-01T05:35:12;10.40;69.20
78028;DHT22;67235;45.638;11.714;2023-04-01T05:37:38;10.80;68.80
78028;DHT22;67235;45.638;11.714;2023-04-01T05:40:04;12.50;67.00
78028;DHT22;67235;45.638;11.714;2023-04-01T05:42:30;13.20;64.70
78028;DHT22;67235;45.638;11.714;2023-04-01T05:44:56;13.10;65.20
78028;DHT22;67235;45.638;11.714;2023-04-01T05:47:22;13.20;65.90
78028;DHT22;67235;45.638;11.714;2023-04-01T05:49:48;13.10;66.30
78028;DHT22;67235;45.638;11.714;2023-04-01T05:52:14;13.60;66.30
78028;DHT22;67235;45.638;11.714;2023-04-01T05:54:41;14.50;65.70
78028;DHT22;67235;45.638;11.714;2023-04-01T05:57:07;15.10;65.00
78028;DHT22;67235;45.638;11.714;2023-04-01T05:59:33;15.00;64.70
78028;DHT22;67235;45.638;11.714;2023-04-01T06:02:00;15.40;65.30
78028;DHT22;67235;45.638;11.714;2023-04-01T06:04:28;15.50;63.10
78028;DHT22;67235;45.638;11.714;2023-04-01T06:06:58;15.40;64.70
78028;DHT22;67235;45.638;11.714;2023-04-01T06:09:29;15.10;64.90
78028;DHT22;67235;45.638;11.714;2023-04-01T06:12:16;14.30;65.70
78028;DHT22;67235;45.638;11.714;2023-04-01T06:42:48;14.80;66.50
78028;DHT22;67235;45.638;11.714;2023-04-01T08:12:57;27.90;27.30
78028;DHT22;67235;45.638;11.714;2023-04-01T08:15:53;28.70;25.60
78028;DHT22;67235;45.638;11.714;2023-04-01T08:25:20;26.50;27.00
78028;DHT22;67235;45.638;11.714;2023-04-01T09:16:27;28.10;24.20
78028;DHT22;67235;45.638;11.714;2023-04-01T09:28:42;26.90;26.00
78028;DHT22;67235;45.638;11.714;2023-04-01T09:31:31;26.80;26.60
78028;DHT22;67235;45.638;11.714;2023-04-01T09:40:17;27.40;26.90
78028;DHT22;67235;45.638;11.714;2023-04-01T09:48:54;28.50;24.50
78028;DHT22;67235;45.638;11.714;2023-04-01T10:14:33;24.50;31.10
78028;DHT22;67235;45.638;11.714;2023-04-01T10:37:34;24.50;30.50
78028;DHT22;67235;45.638;11.714;2023-04-01T10:46:10;25.10;30.10
78028;DHT22;67235;45.638;11.714;2023-04-01T10:57:41;24.20;33.60
78028;DHT22;67235;45.638;11.714;2023-04-01T11:00:35;24.30;31.00
78028;DHT22;67235;45.638;11.714;2023-04-01T11:03:21;24.30;34.10
78028;DHT22;67235;45.638;11.714;2023-04-01T11:14:19;24.60;31.90
78028;DHT22;67235;45.638;11.714;2023-04-01T11:36:20;24.90;32.40
78028;DHT22;67235;45.638;11.714;2023-04-01T11:40:11;24.70;34.40
78028;DHT22;67235;45.638;11.714;2023-04-01T11:45:07;23.90;33.90
78028;DHT22;67235;45.638;11.714;2023-04-01T11:47:46;23.80;33.00
78028;DHT22;67235;45.638;11.714;2023-04-01T11:55:54;24.10;34.30
78028;DHT22;67235;45.638;11.714;2023-04-01T12:07:15;23.90;33.30
78028;DHT22;67235;45.638;11.714;2023-04-01T12:10:48;23.70;34.30
78028;DHT22;67235;45.638;11.714;2023-04-01T12:13:31;23.40;35.00
78028;DHT22;67235;45.638;11.714;2023-04-01T12:26:30;23.50;35.00
78028;DHT22;67235;45.638;11.714;2023-04-01T12:35:39;24.70;31.30
78028;DHT22;67235;45.638;11.714;2023-04-01T12:38:27;24.10;33.10
78028;DHT22;67235;45.638;11.714;2023-04-01T12:41:16;24.00;32.20
78028;DHT22;67235;45.638;11.714;2023-04-01T12:44:06;24.20;31.70
78028;DHT22;67235;45.638;11.714;2023-04-01T12:49:34;24.20;31.90
78028;DHT22;67235;45.638;11.714;2023-04-01T12:57:27;25.70;30.60
78028;DHT22;67235;45.638;11.714;2023-04-01T13:00:12;25.70;31.10
78028;DHT22;67235;45.638;11.714;2023-04-01T13:05:50;25.80;30.70
78028;DHT22;67235;45.638;11.714;2023-04-01T13:13:44;25.50;29.30
78028;DHT22;67235;45.638;11.714;2023-04-01T13:16:34;25.70;31.50
78028;DHT22;67235;45.638;11.714;2023-04-01T13:19:03;25.20;29.30
78028;DHT22;67235;45.638;11.714;2023-04-01T13:24:27;24.50;30.20
78028;DHT22;67235;45.638;11.714;2023-04-01T13:38:17;25.90;28.00
78028;DHT22;67235;45.638;11.714;2023-04-01T13:41:01;25.80;27.50
78028;DHT22;67235;45.638;11.714;2023-04-01T13:43:58;25.80;29.80
78028;DHT22;67235;45.638;11.714;2023-04-01T13:55:30;25.20;30.10
78028;DHT22;67235;45.638;11.714;2023-04-01T13:58:20;25.30;32.10
78028;DHT22;67235;45.638;11.714;2023-04-01T14:04:21;25.20;30.40
78028;DHT22;67235;45.638;11.714;2023-04-01T14:09:59;25.20;30.30
78028;DHT22;67235;45.638;11.714;2023-04-01T14:13:00;25.20;27.60
78028;DHT22;67235;45.638;11.714;2023-04-01T14:24:07;24.30;29.80
78028;DHT22;67235;45.638;11.714;2023-04-01T14:27:01;24.20;29.70
78028;DHT22;67235;45.638;11.714;2023-04-01T14:35:39;24.10;29.10
78028;DHT22;67235;45.638;11.714;2023-04-01T14:38:35;24.00;30.60
78028;DHT22;67235;45.638;11.714;2023-04-01T14:41:19;23.70;31.60
78028;DHT22;67235;45.638;11.714;2023-04-01T14:52:30;23.80;31.30
78028;DHT22;67235;45.638;11.714;2023-04-01T14:55:23;23.80;32.10
78028;DHT22;67235;45.638;11.714;2023-04-01T14:58:13;23.40;30.70
78028;DHT22;67235;45.638;11.714;2023-04-01T15:01:31;23.20;32.20
78028;DHT22;67235;45.638;11.714;2023-04-01T15:04:15;23.40;30.00
78028;DHT22;67235;45.638;11.714;2023-04-01T15:06:56;23.10;31.70
78028;DHT22;67235;45.638;11.714;2023-04-01T15:12:22;23.20;31.30
78028;DHT22;67235;45.638;11.714;2023-04-01T15:21:22;22.80;28.70
78028;DHT22;67235;45.638;11.714;2023-04-01T15:26:57;22.30;30.40
78028;DHT22;67235;45.638;11.714;2023-04-01T15:40:42;21.60;31.50
78028;DHT22;67235;45.638;11.714;2023-04-01T15:49:43;21.50;38.10
78028;DHT22;67235;45.638;11.714;2023-04-01T15:55:31;20.70;38.70
78028;DHT22;67235;45.638;11.714;2023-04-01T16:00:49;20.50;37.10
78028;DHT22;67235;45.638;11.714;2023-04-01T16:03:50;20.50;39.40
78028;DHT22;67235;45.638;11.714;2023-04-01T16:09:35;20.30;36.10
78028;DHT22;67235;45.638;11.714;2023-04-01T16:12:30;20.40;38.00
78028;DHT22;67235;45.638;11.714;2023-04-01T16:21:05;20.10;40.10
78028;DHT22;67235;45.638;11.714;2023-04-01T16:23:37;20.10;37.20
78028;DHT22;67235;45.638;11.714;2023-04-01T16:26:22;20.10;37.60
78028;DHT22;67235;45.638;11.714;2023-04-01T16:31:59;20.20;39.20
78028;DHT22;67235;45.638;11.714;2023-04-01T16:34:44;20.10;38.90
78028;DHT22;67235;45.638;11.714;2023-04-01T16:37:20;20.10;40.40
78028;DHT22;67235;45.638;11.714;2023-04-01T16:40:02;19.90;39.20
78028;DHT22;67235;45.638;11.714;2023-04-01T16:42:53;20.00;39.90
78028;DHT22;67235;45.638;11.714;2023-04-01T16:48:14;19.70;37.60
78028;DHT22;67235;45.638;11.714;2023-04-01T16:50:43;19.70;36.30
78028;DHT22;67235;45.638;11.714;2023-04-01T16:55:43;19.70;36.60
78028;DHT22;67235;45.638;11.714;2023-04-01T16:58:18;19.60;38.10
78028;DHT22;67235;45.638;11.714;2023-04-01T17:00:49;19.60;38.60
78028;DHT22;67235;45.638;11.714;2023-04-01T17:03:47;19.50;38.70
78028;DHT22;67235;45.638;11.714;2023-04-01T17:06:23;19.30;39.10
78028;DHT22;67235;45.638;11.714;2023-04-01T17:09:09;19.20;40.50
78028;DHT22;67235;45.638;11.714;2023-04-01T17:14:29;18.80;43.10
78028;DHT22;67235;45.638;11.714;2023-04-01T17:39:20;17.70;63.20
78028;DHT22;67235;45.638;11.714;2023-04-01T17:51:02;17.40;64.50
78028;DHT22;67235;45.638;11.714;2023-04-01T17:59:28;17.10;64.90
78028;DHT22;67235;45.638;11.714;2023-04-01T18:08:15;16.70;65.30
78028;DHT22;67235;45.638;11.714;2023-04-01T18:22:59;16.20;65.80
78028;DHT22;67235;45.638;11.714;2023-04-01T18:25:42;16.10;65.80
78028;DHT22;67235;45.638;11.714;2023-04-01T18:28:36;16.00;66.00
78028;DHT22;67235;45.638;11.714;2023-04-01T18:31:08;16.00;66.00
78028;DHT22;67235;45.638;11.714;2023-04-01T18:33:54;16.00;66.20
78028;DHT22;67235;45.638;11.714;2023-04-01T18:36:55;15.90;66.30
78028;DHT22;67235;45.638;11.714;2023-04-01T18:39:41;15.80;66.90
78028;DHT22;67235;45.638;11.714;2023-04-01T18:45:28;15.60;67.40
78028;DHT22;67235;45.638;11.714;2023-04-01T18:48:35;15.40;66.70
78028;DHT22;67235;45.638;11.714;2023-04-01T18:53:57;15.00;68.50
78028;DHT22;67235;45.638;11.714;2023-04-01T18:56:43;14.90;68.60
78028;DHT22;67235;45.638;11.714;2023-04-01T18:59:17;14.90;68.80
78028;DHT22;67235;45.638;11.714;2023-04-01T19:02:16;14.70;69.00
78028;DHT22;67235;45.638;11.714;2023-04-01T19:07:43;14.60;69.20
78028;DHT22;67235;45.638;11.714;2023-04-01T19:21:00;14.30;69.60
78028;DHT22;67235;45.638;11.714;2023-04-01T19:35:08;14.30;69.90
78028;DHT22;67235;45.638;11.714;2023-04-01T19:37:42;14.40;70.00
78028;DHT22;67235;45.638;11.714;2023-04-01T19:45:46;14.30;70.00
78028;DHT22;67235;45.638;11.714;2023-04-01T19:56:49;14.30;70.10
78028;DHT22;67235;45.638;11.714;2023-04-01T20:09:58;14.40;69.90
78028;DHT22;67235;45.638;11.714;2023-04-01T20:13:10;14.50;69.90
78028;DHT22;67235;45.638;11.714;2023-04-01T20:15:42;14.40;69.70
78028;DHT22;67235;45.638;11.714;2023-04-01T20:18:25;14.50;69.80
78028;DHT22;67235;45.638;11.714;2023-04-01T20:21:18;14.50;69.70
78028;DHT22;67235;45.638;11.714;2023-04-01T20:23:52;14.60;69.60
78028;DHT22;67235;45.638;11.714;2023-04-01T20:26:36;14.50;69.50
78028;DHT22;67235;45.638;11.714;2023-04-01T20:29:18;14.60;69.40
78028;DHT22;67235;45.638;11.714;2023-04-01T20:37:33;14.60;69.40
78028;DHT22;67235;45.638;11.714;2023-04-01T20:51:36;14.60;68.90
78028;DHT22;67235;45.638;11.714;2023-04-01T20:54:26;14.70;68.80
78028;DHT22;67235;45.638;11.714;2023-04-01T21:03:14;14.80;68.90
78028;DHT22;67235;45.638;11.714;2023-04-01T21:06:19;14.80;69.00
78028;DHT22;67235;45.638;11.714;2023-04-01T21:09:32;14.80;69.30
78028;DHT22;67235;45.638;11.714;2023-04-01T21:15:10;14.70;69.30
78028;DHT22;67235;45.638;11.714;2023-04-01T21:18:32;14.60;69.40
78028;DHT22;67235;45.638;11.714;2023-04-01T21:26:19;14.60;69.40
78028;DHT22;67235;45.638;11.714;2023-04-01T21:29:19;14.60;69.50
78028;DHT22;67235;45.638;11.714;2023-04-01T21:32:12;14.50;69.70
78028;DHT22;67235;45.638;11.714;2023-04-01T21:45:21;14.70;69.30
78028;DHT22;67235;45.638;11.714;2023-04-01T22:04:52;14.50;69.10
78028;DHT22;67235;45.638;11.714;2023-04-01T22:07:38;14.40;69.10
78028;DHT22;67235;45.638;11.714;2023-04-01T22:15:58;14.50;69.00
78028;DHT22;67235;45.638;11.714;2023-04-01T22:18:42;14.50;69.10
78028;DHT22;67235;45.638;11.714;2023-04-01T22:21:13;14.40;68.90
78028;DHT22;67235;45.638;11.714;2023-04-01T22:23:46;14.40;69.20
78028;DHT22;67235;45.638;11.714;2023-04-01T22:26:25;14.40;69.30
78028;DHT22;67235;45.638;11.714;2023-04-01T22:31:39;14.30;69.60
78028;DHT22;67235;45.638;11.714;2023-04-01T22:34:24;14.20;69.30
78028;DHT22;67235;45.638;11.714;2023-04-01T22:37:05;14.20;69.20
78028;DHT22;67235;45.638;11.714;2023-04-01T22:40:01;14.30;68.90
78028;DHT22;67235;45.638;11.714;2023-04-01T22:42:47;14.40;68.70
78028;DHT22;67235;45.638;11.714;2023-04-01T22:50:46;14.40;68.90
78028;DHT22;67235;45.638;11.714;2023-04-01T22:56:12;14.30;69.00
78028;DHT22;67235;45.638;11.714;2023-04-01T22:58:51;14.40;69.40
78028;DHT22;67235;45.638;11.714;2023-04-01T23:01:24;14.40;69.50
78028;DHT22;67235;45.638;11.714;2023-04-01T23:03:52;14.30;69.60
78028;DHT22;67235;45.638;11.714;2023-04-01T23:06:27;14.50;69.70
78028;DHT22;67235;45.638;11.714;2023-04-01T23:09:07;14.40;70.00
78028;DHT22;67235;45.638;11.714;2023-04-01T23:11:43;14.50;69.80
78028;DHT22;67235;45.638;11.714;2023-04-01T23:21:50;14.50;69.40
78028;DHT22;67235;45.638;11.714;2023-04-01T23:24:38;14.50;69.40
78028;DHT22;67235;45.638;11.714;2023-04-01T23:27:27;14.40;69.60
78028;DHT22;67235;45.638;11.714;2023-04-01T23:29:54;14.40;69.80
78028;DHT22;67235;45.638;11.714;2023-04-01T23:32:23;14.40;69.50
78028;DHT22;67235;45.638;11.714;2023-04-01T23:34:54;14.40;69.80
78028;DHT22;67235;45.638;11.714;2023-04-01T23:37:21;14.40;69.50
78028;DHT22;67235;45.638;11.714;2023-04-01T23:39:56;14.40;69.70
78028;DHT22;67235;45.638;11.714;2023-04-01T23:42:30;14.40;69.70
78028;DHT22;67235;45.638;11.714;2023-04-01T23:45:00;14.30;70.10
78028;DHT22;67235;45.638;11.714;2023-04-01T23:47:33;14.30;69.80
78028;DHT22;67235;45.638;11.714;2023-04-01T23:50:16;14.30;70.10
78028;DHT22;67235;45.638;11.714;2023-04-01T23:52:48;14.40;70.20
78028;DHT22;67235;45.638;11.714;2023-04-01T23:55:33;14.40;69.80
78028;DHT22;67235;45.638;11.714;2023-04-01T23:58:11;14.20;70.20
